createdAt,value
2018-08-09T00:05:22.758Z,49.6
2018-08-09T00:22:15.258Z,50.4
2018-08-09T00:39:07.184Z,50.8
2018-08-09T00:55:59.411Z,50.8
2018-08-09T01:12:51.912Z,51.6
2018-08-09T01:22:59.095Z,52.4
2018-08-09T01:39:50.264Z,53.2
2018-08-09T01:56:41.624Z,54.0
2018-08-09T02:13:33.067Z,54.0
2018-08-09T02:30:24.476Z,54.0
2018-08-09T02:47:16.175Z,54.0
2018-08-09T03:04:07.879Z,54.0
2018-08-09T03:20:59.494Z,54.4
2018-08-09T03:37:50.720Z,54.8
2018-08-09T03:54:42.112Z,55.2
2018-08-09T04:11:33.978Z,54.8
2018-08-09T04:28:25.825Z,54.0
2018-08-09T04:45:17.867Z,54.0
2018-08-09T05:02:09.936Z,54.0
2018-08-09T05:19:01.557Z,54.0
2018-08-09T05:35:53.320Z,54.8
2018-08-09T05:52:44.968Z,56.0
2018-08-09T06:09:35.835Z,56.8
2018-08-09T06:19:42.129Z,56.8
2018-08-09T06:36:32.474Z,57.2
2018-08-09T06:53:22.605Z,57.6
2018-08-09T07:10:12.343Z,58.0
2018-08-09T07:27:02.275Z,58.0
2018-08-09T07:43:52.714Z,58.0
2018-08-09T08:00:43.921Z,58.0
2018-08-09T08:14:11.439Z,57.6
2018-08-09T08:24:18.610Z,55.6
2018-08-09T08:41:08.624Z,57.2
2018-08-09T08:49:33.885Z,57.2
2018-08-09T09:06:25.272Z,57.6
2018-08-09T09:23:16.755Z,58.0
2018-08-09T09:38:27.456Z,57.2
2018-08-09T09:55:20.032Z,57.6
2018-08-09T10:12:12.966Z,56.8
2018-08-09T10:27:25.074Z,56.8
2018-08-09T10:44:18.810Z,57.2
2018-08-09T11:01:13.062Z,56.0
2018-08-09T11:18:07.648Z,55.6
2018-08-09T11:35:02.132Z,55.2
2018-08-09T11:51:57.269Z,54.8
2018-08-09T12:08:52.647Z,54.4
2018-08-09T12:25:48.494Z,54.8
2018-08-09T12:42:44.199Z,54.8
2018-08-09T12:59:40.218Z,54.8
2018-08-09T13:16:36.081Z,56.0
2018-08-09T13:33:31.896Z,56.8
2018-08-09T13:50:27.805Z,56.8
2018-08-09T14:07:23.667Z,56.8
2018-08-09T14:24:20.209Z,58.0
2018-08-09T14:31:06.067Z,60.0
2018-08-09T14:46:19.858Z,62.0
2018-08-09T15:03:15.017Z,62.8
2018-08-09T15:20:09.651Z,62.0
2018-08-09T15:37:04.635Z,62.0
2018-08-09T15:53:58.336Z,62.0
2018-08-09T16:10:52.451Z,61.6
2018-08-09T16:27:46.725Z,61.2
2018-08-09T16:44:40.961Z,61.2
2018-08-09T17:01:35.156Z,61.6
2018-08-09T17:18:29.536Z,61.6
2018-08-09T17:35:23.522Z,61.6
2018-08-09T17:52:17.859Z,61.2
2018-08-09T18:09:12.070Z,60.4
2018-08-09T18:26:06.055Z,60.0
2018-08-09T18:43:00.209Z,60.0
2018-08-09T18:59:54.272Z,59.2
2018-08-09T19:16:49.177Z,60.0
2018-08-09T19:25:14.799Z,60.8
2018-08-09T19:42:07.722Z,61.2
2018-08-09T19:59:00.332Z,61.2
2018-08-09T20:15:52.638Z,59.6
2018-08-09T20:32:44.644Z,58.4
2018-08-09T20:49:36.594Z,58.4
2018-08-09T21:06:28.175Z,58.8
2018-08-09T21:23:19.534Z,57.6
2018-08-09T21:40:10.353Z,56.8
2018-08-09T21:57:01.113Z,55.6
2018-08-09T22:13:51.497Z,56.0
2018-08-09T22:30:41.470Z,56.8
2018-08-09T22:47:31.218Z,58.0
2018-08-09T23:04:21.050Z,58.0
2018-08-09T23:21:11.005Z,58.4
2018-08-09T23:38:00.483Z,58.0
2018-08-09T23:54:49.711Z,59.2
